Terminal Aerodrome Forecast
Issued by NWS

Home | Current Version | Previous Version | Text Only | Print | Product List | Glossary On
Versions: 1 2 3 4 5 6 7 8 9 10 11 12 13
000
FTAK31 PAJN 281700
TAFAWG
TAF
PAWG 281740Z 2818/2918 27007KT P6SM SCT035 BKN090
     FM290400 30006KT P6SM FEW040 SCT080
     FM290800 VRB03KT P6SM SCT080
     FM291600 30006KT P6SM FEW080
      AMD LTD TO CLD VIS AND WIND 2906/2915=

USA.gov is the U.S. government's official web portal to all federal, state and local government web resources and services.